Hlavní strana
METAR-TAF:

METAR-TAF

Letiště :

Olney-Noble Airport

Olney-Noble, Illinois, Spojené státy americké

zeměpisná šířka: 38-43-19N, zeměpisná délka: 088-10-35W, výška: 147 m

Aktuální stav počasí

Zpráva byla vytvořena před 13 minutami, v 09:35 UTC
Jižní vítr 6 kt
Teplota 9°C
Vlhkost vzduchu 100%
Tlak 1014 hPa
Viditelnost: 11.3 km
Oblačno až skoro zataženo ve výšce 1100 ft
Zataženo ve výšce 1600 ft
déšť

METAR: KOLY 240935Z AUTO 18006KT 7SM RA BKN011 OVC016 09/09 A2994 RMK AO2 P0003 T00850085

Čas: 03:48 (09:48 UTC)


TAF: chybějící

Stav a předpovědi počasí z více než 4 000 letišť (zprávy METAR a TAF).

Červené a žluté tečky na mapě představují dostupné meteorologické stanice.

Když kurzor umístíte na tečku, zobrazí se název stanice.

Pak kliknutím zobrazíte stav a předpověď počasí.

Chcete-li změnit mapu, kliknutím na zelené tlačítko se znaménkem +mapu přiblížíte, kliknutím na zelené tlačítko se znaménkem – mapu oddálíte a kliknutím na zelené šipky přejdete na sousední mapy.


METAR-TAF: